Time;durP1;ratioP1;P1;durP2;ratioP2;P2;SDS_P1;SDS_P2;PMS_P1;PMS_P2;Temp;Humidity;BMP_temperature;BMP_pressure;BME280_temperature;BME280_humidity;BME280_pressure;Samples;Min_cycle;Max_cycle;Signal;HPM_P1;HPM_P2
2021/10/26 00:02:24;;;;;;;40.03;16.47;;;;;;;4.60;49.42;102121.22;125186;1102;103420;-79
2021/10/26 00:04:52;;;;;;;39.47;16.83;;;;;;;4.60;49.46;102120.31;125300;1102;104162;-78
2021/10/26 00:07:20;;;;;;;42.83;15.97;;;;;;;4.59;49.46;102114.19;125199;1102;104283;-78
2021/10/26 00:09:48;;;;;;;41.80;17.80;;;;;;;4.60;49.46;102120.31;125204;1102;104166;-78
2021/10/26 00:12:16;;;;;;;36.60;16.50;;;;;;;4.56;49.58;102113.92;125210;1102;104155;-77
2021/10/26 00:14:44;;;;;;;39.07;17.17;;;;;;;4.52;49.31;102106.66;125106;1102;104214;-79
2021/10/26 00:17:12;;;;;;;40.13;17.47;;;;;;;4.50;49.66;102110.80;125180;1102;104281;-77
2021/10/26 00:19:39;;;;;;;39.23;16.63;;;;;;;4.47;49.44;102108.86;125077;1102;104293;-79
2021/10/26 00:22:07;;;;;;;38.77;17.50;;;;;;;4.42;49.69;102102.34;125262;1102;104153;-78
2021/10/26 00:24:35;;;;;;;40.87;18.93;;;;;;;4.36;49.49;102103.50;125280;1102;104168;-78
2021/10/26 00:27:03;;;;;;;50.97;22.93;;;;;;;4.30;49.48;102097.02;125148;1102;104158;-79
2021/10/26 00:29:31;;;;;;;57.63;24.90;;;;;;;4.25;49.53;102094.78;125121;1102;104159;-78
2021/10/26 00:31:59;;;;;;;54.10;24.30;;;;;;;4.18;50.12;102090.75;125145;1102;104162;-79
2021/10/26 00:34:28;;;;;;;54.10;24.40;;;;;;;4.14;49.31;102091.25;125158;1102;104201;-78
2021/10/26 00:36:56;;;;;;;52.27;24.63;;;;;;;4.10;49.54;102089.18;125199;1102;104160;-79
2021/10/26 00:39:24;;;;;;;55.35;24.90;;;;;;;4.08;49.60;102078.66;125157;1102;104185;-79
2021/10/26 00:41:53;;;;;;;49.40;22.40;;;;;;;4.09;50.01;102088.25;125220;1102;104306;-79
2021/10/26 00:44:23;;;;;;;51.13;23.53;;;;;;;4.06;49.50;102076.69;124997;1102;104265;-79
2021/10/26 00:46:50;;;;;;;45.47;20.77;;;;;;;4.03;49.75;102085.11;125223;1102;104155;-78
2021/10/26 00:49:18;;;;;;;49.00;22.80;;;;;;;4.02;50.09;102079.78;125220;1102;104165;-78
2021/10/26 00:51:47;;;;;;;53.40;22.85;;;;;;;4.02;50.53;102079.78;125134;1101;104146;-79
2021/10/26 00:54:15;;;;;;;49.67;21.70;;;;;;;4.01;50.35;102077.98;125229;1102;104162;-79
2021/10/26 00:56:48;;;;;;;;;;;;;;;3.99;50.71;102079.52;125191;1102;104243;-79
2021/10/26 00:59:16;;;;;;;45.60;18.80;;;;;;;3.98;49.92;102088.11;125163;1102;104153;-79
2021/10/26 01:01:47;;;;;;;45.07;19.10;;;;;;;3.91;50.06;102092.77;125210;1102;104162;-78
2021/10/26 01:04:16;;;;;;;47.87;20.97;;;;;;;3.87;50.27;102084.56;125275;1102;104235;-79
2021/10/26 01:06:45;;;;;;;43.40;20.20;;;;;;;3.79;50.47;102076.09;125198;1102;104310;-78
2021/10/26 01:09:15;;;;;;;51.60;22.95;;;;;;;3.73;50.65;102081.65;125184;1102;104281;-79
2021/10/26 01:11:44;;;;;;;50.93;23.60;;;;;;;3.72;50.32;102086.70;125204;1102;104162;-78
2021/10/26 01:14:14;;;;;;;53.70;25.67;;;;;;;3.73;50.51;102083.34;125124;1102;104309;-78
2021/10/26 01:16:42;;;;;;;57.70;26.23;;;;;;;3.70;50.90;102083.97;125194;1102;104156;-78
2021/10/26 01:19:12;;;;;;;60.27;27.77;;;;;;;3.70;50.61;102080.48;125173;1102;104287;-79
2021/10/26 01:21:41;;;;;;;57.97;29.10;;;;;;;3.67;50.78;102081.11;125119;1102;104156;-78
2021/10/26 01:24:09;;;;;;;58.70;28.17;;;;;;;3.63;50.60;102078.09;125241;1102;104179;-79
2021/10/26 01:26:38;;;;;;;58.37;27.57;;;;;;;3.59;50.84;102079.52;125205;1102;104382;-79
2021/10/26 01:29:06;;;;;;;64.37;27.27;;;;;;;3.55;51.80;102073.16;125307;1101;104165;-79
2021/10/26 01:31:37;;;;;;;53.33;26.10;;;;;;;3.49;51.07;102075.20;125179;1102;104159;-79
2021/10/26 01:34:16;;;;;;;56.43;26.53;;;;;;;3.48;51.41;102070.78;125174;1102;104351;-78
2021/10/26 01:36:44;;;;;;;57.10;26.33;;;;;;;3.46;51.78;102071.41;125211;1102;104162;-78
2021/10/26 01:39:12;;;;;;;51.87;22.90;;;;;;;3.44;51.70;102071.27;125160;1102;104159;-78
2021/10/26 01:41:42;;;;;;;55.10;25.73;;;;;;;3.44;51.39;102068.67;125138;1102;104204;-78
2021/10/26 01:44:10;;;;;;;58.20;26.53;;;;;;;3.42;51.06;102065.94;125162;1102;104232;-77
2021/10/26 01:46:41;;;;;;;59.03;25.93;;;;;;;3.39;51.75;102057.88;125245;1102;104342;-78
2021/10/26 01:49:10;;;;;;;64.73;29.30;;;;;;;3.38;51.77;102065.52;125223;1102;104187;-78
2021/10/26 01:51:38;;;;;;;47.00;21.73;;;;;;;3.37;51.89;102064.63;125193;1102;104179;-78
2021/10/26 01:54:07;;;;;;;39.43;18.00;;;;;;;3.40;52.05;102062.31;125235;1102;105295;-79
2021/10/26 01:56:36;;;;;;;46.43;19.80;;;;;;;3.45;52.04;102065.31;125152;1102;104168;-78
2021/10/26 01:59:06;;;;;;;51.15;24.35;;;;;;;3.45;51.63;102057.53;125177;1102;104300;-79
2021/10/26 02:01:42;;;;;;;49.80;22.15;;;;;;;3.41;51.52;102066.73;125176;1102;104158;-79
2021/10/26 02:04:11;;;;;;;50.23;22.73;;;;;;;3.40;51.60;102071.78;125261;1102;104194;-79
2021/10/26 02:06:39;;;;;;;52.73;21.97;;;;;;;3.40;51.63;102058.81;125230;1102;104291;-79
2021/10/26 02:09:06;;;;;;;46.43;21.53;;;;;;;3.37;51.65;102064.63;125174;1102;104194;-79
2021/10/26 02:11:37;;;;;;;47.00;22.60;;;;;;;3.35;52.27;102060.06;125163;1102;104325;-79
2021/10/26 02:14:05;;;;;;;50.20;22.47;;;;;;;3.36;51.58;102059.30;125153;1102;104168;-79
2021/10/26 02:16:33;;;;;;;47.87;21.00;;;;;;;3.35;52.12;102048.02;125169;1102;104156;-79
2021/10/26 02:19:01;;;;;;;46.40;22.20;;;;;;;3.38;52.51;102052.55;125177;1102;104168;-79
2021/10/26 02:21:29;;;;;;;49.33;21.47;;;;;;;3.37;52.32;102053.34;125122;1102;104162;-78
2021/10/26 02:23:57;;;;;;;44.83;19.83;;;;;;;3.31;52.17;102050.20;125199;1102;104156;-79
2021/10/26 02:26:25;;;;;;;48.47;21.73;;;;;;;3.21;53.05;102054.56;125195;1102;102072;-78
2021/10/26 02:28:53;;;;;;;51.53;23.23;;;;;;;3.15;53.04;102058.30;125241;1102;104291;-78
2021/10/26 02:31:21;;;;;;;52.77;24.80;;;;;;;3.14;51.94;102064.25;124957;1102;104331;-79
2021/10/26 02:33:51;;;;;;;47.17;22.70;;;;;;;3.16;52.59;102055.81;125004;1105;118059;-78
2021/10/26 02:36:19;;;;;;;52.23;24.23;;;;;;;3.18;52.24;102050.76;124999;1105;104188;-78
2021/10/26 02:38:47;;;;;;;58.53;27.03;;;;;;;3.18;52.85;102051.69;124992;1105;104296;-78
2021/10/26 02:41:15;;;;;;;63.57;28.83;;;;;;;3.17;52.59;102049.86;125002;1105;104386;-78
2021/10/26 02:43:43;;;;;;;61.55;29.55;;;;;;;3.13;52.59;102047.78;124962;1102;104210;-79
2021/10/26 02:46:11;;;;;;;61.50;28.37;;;;;;;3.10;52.51;102047.50;125009;1102;104299;-79
2021/10/26 02:48:42;;;;;;;60.37;25.90;;;;;;;3.06;53.11;102046.30;124968;1105;104277;-79
2021/10/26 02:51:10;;;;;;;47.13;23.53;;;;;;;3.06;53.05;102046.30;125034;1102;104159;-79
2021/10/26 02:53:38;;;;;;;51.07;23.67;;;;;;;3.10;53.38;102052.69;124961;1105;104341;-78
2021/10/26 02:56:08;;;;;;;52.27;24.10;;;;;;;3.12;52.80;102048.55;125038;1105;104169;-79
2021/10/26 02:58:36;;;;;;;46.93;20.63;;;;;;;3.13;53.51;102046.84;124988;1105;104214;-79
2021/10/26 03:01:04;;;;;;;47.13;21.97;;;;;;;3.13;53.03;102042.59;124974;1106;104171;-78
2021/10/26 03:03:33;;;;;;;49.00;20.27;;;;;;;3.12;53.63;102040.77;125119;1102;104274;-79
2021/10/26 03:06:01;;;;;;;40.90;18.53;;;;;;;3.15;53.68;102041.03;125255;1102;104181;-79
2021/10/26 03:08:30;;;;;;;37.60;17.65;;;;;;;3.16;53.22;102035.05;125021;1103;104175;-79
2021/10/26 03:10:59;;;;;;;43.20;19.07;;;;;;;3.19;53.77;102034.44;125281;1102;104187;-79
2021/10/26 03:13:27;;;;;;;38.80;17.53;;;;;;;3.19;53.71;102042.22;125136;1102;104262;-78
2021/10/26 03:15:55;;;;;;;37.50;16.87;;;;;;;3.20;53.69;102038.86;125230;1102;104162;-79
2021/10/26 03:18:23;;;;;;;40.07;17.77;;;;;;;3.21;53.92;102039.00;124996;1102;104213;-79
2021/10/26 03:20:52;;;;;;;41.73;18.73;;;;;;;3.18;53.84;102041.31;125175;1102;104168;-78
2021/10/26 03:23:20;;;;;;;45.40;18.70;;;;;;;3.15;53.97;102043.63;125176;1102;104277;-79
2021/10/26 03:25:49;;;;;;;45.60;20.33;;;;;;;3.13;53.65;102039.06;125147;1102;104159;-79
2021/10/26 03:28:18;;;;;;;45.17;20.53;;;;;;;3.10;53.45;102036.20;125224;1102;104245;-79
2021/10/26 03:30:46;;;;;;;41.30;18.00;;;;;;;3.09;53.89;102044.77;125247;1102;104207;-78
2021/10/26 03:33:29;;;;;;;41.73;19.23;;;;;;;3.08;53.94;102038.65;125108;1101;104363;-79
2021/10/26 03:36:01;;;;;;;47.43;22.23;;;;;;;3.08;54.20;102049.03;125126;1102;104411;-78
2021/10/26 03:38:30;;;;;;;48.37;22.33;;;;;;;3.09;53.48;102039.59;125178;1102;104157;-79
2021/10/26 03:40:58;;;;;;;47.33;22.57;;;;;;;3.05;54.49;102048.75;125168;1102;104153;-78
2021/10/26 03:43:26;;;;;;;51.43;20.53;;;;;;;3.02;54.37;102043.28;125113;1102;104171;-79
2021/10/26 03:45:54;;;;;;;51.37;21.73;;;;;;;3.01;53.65;102044.08;125226;1102;104181;-78
2021/10/26 03:48:22;;;;;;;49.07;22.07;;;;;;;2.94;53.68;102039.09;125251;1102;104271;-79
2021/10/26 03:50:50;;;;;;;50.93;21.90;;;;;;;2.84;54.20;102040.84;125128;1102;104290;-78
2021/10/26 03:53:18;;;;;;;51.70;23.00;;;;;;;2.82;54.15;102034.62;125178;1102;104213;-79
2021/10/26 03:55:46;;;;;;;51.10;22.30;;;;;;;2.79;54.09;102029.16;125173;1102;104187;-78
2021/10/26 03:58:14;;;;;;;49.50;24.10;;;;;;;2.75;53.54;102031.33;125191;1102;104207;-78
2021/10/26 04:00:45;;;;;;;50.23;23.47;;;;;;;2.69;53.76;102040.34;125197;1102;104425;-79
2021/10/26 04:03:29;;;;;;;55.03;24.47;;;;;;;2.69;54.27;102034.25;125110;1102;104150;-79
2021/10/26 04:06:01;;;;;;;56.73;24.97;;;;;;;2.68;54.79;102035.02;125185;1102;104147;-79
2021/10/26 04:08:34;;;;;;;53.80;25.10;;;;;;;2.68;54.56;102035.95;125224;1102;104150;-79
2021/10/26 04:11:06;;;;;;;54.90;25.00;;;;;;;2.67;54.09;102036.70;125194;1102;104591;-78
2021/10/26 04:13:34;;;;;;;60.07;24.67;;;;;;;2.66;54.61;102033.97;125187;1102;104158;-79
2021/10/26 04:16:05;;;;;;;50.87;26.07;;;;;;;2.65;54.49;102033.07;125163;1102;104418;-79
2021/10/26 04:18:33;;;;;;;49.20;24.87;;;;;;;2.63;54.47;102034.63;125276;1102;104174;-79
2021/10/26 04:21:02;;;;;;;50.53;23.87;;;;;;;2.62;54.05;102029.30;125197;1102;104150;-78
2021/10/26 04:23:32;;;;;;;54.50;25.03;;;;;;;2.60;54.94;102021.38;125197;1102;104172;-79
2021/10/26 04:26:01;;;;;;;54.03;23.90;;;;;;;2.59;55.37;102024.73;125274;1102;104271;-78
2021/10/26 04:28:30;;;;;;;50.97;22.03;;;;;;;2.59;55.09;102018.64;125211;1102;104187;-78
2021/10/26 04:31:00;;;;;;;60.55;23.10;;;;;;;2.61;54.79;102017.09;125267;1102;104155;-78
2021/10/26 04:33:29;;;;;;;70.13;22.50;;;;;;;2.62;54.50;102014.65;125113;1102;104583;-79
2021/10/26 04:35:57;;;;;;;64.10;22.40;;;;;;;2.61;55.27;102012.81;125162;1102;104622;-79
2021/10/26 04:38:25;;;;;;;65.47;23.43;;;;;;;2.61;54.98;102022.28;125128;1102;104867;-79
2021/10/26 04:40:57;;;;;;;47.45;21.70;;;;;;;2.60;55.28;102005.83;125157;1102;101747;-80
2021/10/26 04:43:26;;;;;;;48.20;22.77;;;;;;;2.62;54.83;102009.46;125194;1102;104297;-80
2021/10/26 04:45:55;;;;;;;44.45;21.30;;;;;;;2.63;55.74;102005.17;125212;1102;104820;-81
2021/10/26 04:48:24;;;;;;;51.03;22.73;;;;;;;2.63;55.12;102015.55;125191;1102;104160;-81
2021/10/26 04:50:53;;;;;;;55.43;22.93;;;;;;;2.64;55.49;102012.20;125070;1102;104518;-81
2021/10/26 04:53:22;;;;;;;50.70;22.17;;;;;;;2.64;55.34;102009.60;125258;1102;104185;-80
2021/10/26 04:55:55;;;;;;;56.77;23.70;;;;;;;2.65;55.14;102006.22;125143;1101;104214;-79
2021/10/26 04:58:23;;;;;;;53.07;25.23;;;;;;;2.64;55.34;102013.09;125212;1102;104162;-81
2021/10/26 05:00:52;;;;;;;51.43;23.23;;;;;;;2.64;55.87;102007.91;125166;1102;104155;-80
2021/10/26 05:03:20;;;;;;;52.53;23.63;;;;;;;2.65;55.75;102020.11;124979;1102;104152;-80
2021/10/26 05:05:48;;;;;;;53.37;23.43;;;;;;;2.65;55.24;102016.59;125199;1102;104573;-81
2021/10/26 05:08:16;;;;;;;67.77;24.83;;;;;;;2.67;55.46;102020.25;125215;1102;104179;-84
2021/10/26 05:10:45;;;;;;;59.43;25.30;;;;;;;2.69;55.44;102013.52;125063;1102;104194;-80
2021/10/26 05:13:14;;;;;;;54.37;25.20;;;;;;;2.70;56.01;102008.47;125174;1102;104175;-82
2021/10/26 05:15:59;;;;;;;54.65;25.10;;;;;;;2.72;55.19;102013.80;125241;1102;104155;-81
2021/10/26 05:18:43;;;;;;;55.60;26.30;;;;;;;2.73;55.31;102010.45;125313;1102;104300;-81
2021/10/26 05:21:29;;;;;;;59.30;26.60;;;;;;;2.74;55.50;102012.24;125188;1102;104471;-80
2021/10/26 05:24:10;;;;;;;60.10;26.73;;;;;;;2.79;55.71;102008.41;125172;1102;104173;-80
2021/10/26 05:26:45;;;;;;;59.63;23.97;;;;;;;2.83;56.03;102004.41;125216;1102;104232;-80
2021/10/26 05:29:14;;;;;;;55.80;23.03;;;;;;;2.86;55.81;102008.17;125165;1102;104261;-79
2021/10/26 05:31:43;;;;;;;49.63;22.30;;;;;;;2.94;55.73;102005.38;125153;1102;104338;-80
2021/10/26 05:34:12;;;;;;;42.20;19.05;;;;;;;3.02;55.84;102015.69;124885;1102;104152;-80
2021/10/26 05:36:43;;;;;;;44.60;22.03;;;;;;;3.12;56.22;102012.23;124868;1102;104215;-80
2021/10/26 05:39:14;;;;;;;47.60;21.63;;;;;;;3.19;56.45;102011.09;125138;1102;104188;-81
2021/10/26 05:41:43;;;;;;;42.43;19.80;;;;;;;3.23;56.30;102008.91;125026;1103;104300;-78
2021/10/26 05:44:13;;;;;;;39.10;17.27;;;;;;;3.32;56.63;102005.30;124935;1102;104219;-81
2021/10/26 05:49:28;;;;;;;32.80;15.17;;;;;;;3.46;56.56;102010.05;124879;1102;104644;-81
2021/10/26 05:52:00;;;;;;;31.47;14.07;;;;;;;3.54;56.95;102014.22;125172;1102;104290;-80
2021/10/26 05:54:29;;;;;;;31.43;14.50;;;;;;;3.59;56.79;102012.94;125140;1102;104408;-79
2021/10/26 05:57:02;;;;;;;35.47;14.17;;;;;;;3.64;57.24;102015.03;125081;1102;104403;-81
2021/10/26 05:59:32;;;;;;;36.83;14.93;;;;;;;3.71;57.08;102014.77;125065;1102;104254;-81
2021/10/26 06:02:02;;;;;;;32.05;14.15;;;;;;;3.81;56.65;102017.41;124892;1102;104236;-81
2021/10/26 06:04:33;;;;;;;27.87;13.33;;;;;;;3.88;57.07;102017.18;125153;1102;104153;-81
2021/10/26 06:07:05;;;;;;;34.17;13.50;;;;;;;3.96;57.08;102017.84;125185;1102;104162;-81
2021/10/26 06:09:35;;;;;;;36.50;13.50;;;;;;;4.05;57.33;102017.70;125018;1102;103986;-80
2021/10/26 06:12:08;;;;;;;32.90;14.53;;;;;;;4.14;56.81;102024.62;124956;1105;104360;-79
2021/10/26 06:14:45;;;;;;;30.03;13.47;;;;;;;4.24;57.17;102021.13;125140;1102;104181;-81
2021/10/26 06:17:12;;;;;;;;;;;;;;;4.32;57.78;102025.27;125150;1102;105627;-82
2021/10/26 06:19:44;;;;;;;34.43;14.53;;;;;;;4.41;57.50;102024.23;125101;1102;104336;-80
2021/10/26 06:22:16;;;;;;;29.00;13.47;;;;;;;4.54;57.59;102021.00;125111;1102;104162;-80
2021/10/26 06:24:48;;;;;;;33.10;13.67;;;;;;;4.66;57.70;102029.83;125133;1102;104166;-81
2021/10/26 06:27:18;;;;;;;38.60;15.33;;;;;;;4.78;56.66;102024.73;125148;1102;104275;-79
2021/10/26 06:29:50;;;;;;;31.83;15.20;;;;;;;4.89;57.26;102016.12;125109;1102;104162;-80
2021/10/26 06:32:40;;;;;;;35.90;15.00;;;;;;;5.00;57.17;102017.94;125173;1102;104704;-80
2021/10/26 06:35:25;;;;;;;32.17;15.47;;;;;;;5.13;56.80;102024.16;125070;1105;104539;-81
2021/10/26 06:37:57;;;;;;;32.07;15.40;;;;;;;5.23;56.63;102016.30;125016;1102;104152;-80
2021/10/26 06:40:30;;;;;;;32.27;15.07;;;;;;;5.33;57.19;102015.34;124972;1105;102243;-81
2021/10/26 06:43:12;;;;;;;32.13;14.13;;;;;;;5.45;57.05;102010.22;124962;1102;104309;-80
2021/10/26 06:46:00;;;;;;;31.73;14.33;;;;;;;5.60;57.03;102001.04;124915;1105;104313;-80
2021/10/26 06:48:41;;;;;;;34.17;13.93;;;;;;;5.74;56.88;102013.45;124821;1106;107908;-79
2021/10/26 06:51:32;;;;;;;30.20;14.73;;;;;;;5.85;57.03;102005.59;124901;1105;104362;-79
2021/10/26 06:54:20;;;;;;;33.80;14.63;;;;;;;5.95;56.73;102005.51;124872;1103;104289;-79
2021/10/26 06:57:03;;;;;;;36.23;15.47;;;;;;;6.03;56.92;102009.68;124921;1105;104243;-79
2021/10/26 06:59:53;;;;;;;34.10;14.77;;;;;;;6.09;56.69;102002.34;125049;1103;104446;-81
2021/10/26 07:02:47;;;;;;;37.37;15.53;;;;;;;6.19;56.86;102008.27;124908;1103;105422;-79
2021/10/26 07:05:31;;;;;;;36.20;16.00;;;;;;;6.28;57.02;102007.27;124938;1102;104423;-78
2021/10/26 07:08:23;;;;;;;35.97;17.23;;;;;;;6.37;56.46;102004.44;125098;1102;104261;-78
2021/10/26 07:10:56;;;;;;;35.40;16.45;;;;;;;6.44;56.35;102004.13;124935;1105;104179;-79
2021/10/26 07:13:27;;;;;;;38.30;17.50;;;;;;;6.47;56.32;101999.16;125131;1102;104159;-79
2021/10/26 07:15:58;;;;;;;32.40;15.53;;;;;;;6.55;56.23;102001.45;124991;1102;104155;-79
2021/10/26 07:18:27;;;;;;;34.73;16.87;;;;;;;6.62;56.26;102004.64;125060;1102;104150;-77
2021/10/26 07:20:57;;;;;;;40.55;17.40;;;;;;;6.72;56.06;101995.80;124857;1102;104201;-79
2021/10/26 07:23:47;;;;;;;35.57;17.50;;;;;;;6.81;56.18;101999.09;125162;1102;104705;-79
2021/10/26 07:26:34;;;;;;;35.43;17.47;;;;;;;6.89;55.96;101994.45;125108;1102;104149;-79
2021/10/26 07:29:07;;;;;;;37.50;18.30;;;;;;;6.96;56.26;101994.09;125079;1102;104191;-79
2021/10/26 07:31:40;;;;;;;37.80;16.87;;;;;;;7.05;56.21;101993.88;125137;1102;104211;-79
2021/10/26 07:34:14;;;;;;;40.50;16.17;;;;;;;7.13;56.01;101981.39;125135;1102;104166;-78
2021/10/26 07:36:48;;;;;;;39.40;17.00;;;;;;;7.23;56.24;101981.28;125042;1102;104306;-77
2021/10/26 07:42:00;;;;;;;36.47;14.80;;;;;;;7.47;55.90;101984.74;125049;1102;104188;-78
2021/10/26 07:47:34;;;;;;;31.30;14.50;;;;;;;7.78;55.52;101978.20;124970;1102;104168;-79
2021/10/26 07:50:07;;;;;;;31.63;14.23;;;;;;;7.92;55.30;101973.13;125173;1102;102739;-79
2021/10/26 07:52:39;;;;;;;30.50;13.80;;;;;;;8.05;55.45;101971.36;125191;1102;104155;-78
2021/10/26 07:55:20;;;;;;;33.97;14.10;;;;;;;8.19;55.35;101975.83;125195;1102;104297;-77
2021/10/26 07:57:49;;;;;;;32.10;13.97;;;;;;;8.33;55.78;101960.20;125092;1102;104165;-78
2021/10/26 08:00:21;;;;;;;34.77;13.90;;;;;;;8.48;55.77;101965.57;125094;1102;111654;-80
2021/10/26 08:02:56;;;;;;;32.57;13.27;;;;;;;8.57;55.24;101961.89;125183;1102;104339;-80
2021/10/26 08:05:45;;;;;;;28.90;14.17;;;;;;;8.68;54.68;101953.83;124942;1102;104392;-77
2021/10/26 08:08:44;;;;;;;29.00;14.87;;;;;;;8.81;54.85;101956.47;125095;1102;105637;-79
2021/10/26 08:11:17;;;;;;;28.03;11.60;;;;;;;8.94;54.46;101948.63;125064;1102;104214;-78
2021/10/26 08:13:47;;;;;;;26.12;12.13;;;;;;;9.06;54.75;101945.89;125067;1102;104197;-78
2021/10/26 08:16:18;;;;;;;24.57;12.00;;;;;;;9.15;53.66;101943.86;125106;1103;104258;-77
2021/10/26 08:18:52;;;;;;;27.00;12.77;;;;;;;9.28;54.46;101940.31;125150;1102;104310;-78
2021/10/26 08:21:24;;;;;;;30.17;13.13;;;;;;;9.41;54.59;101938.47;125199;1102;104421;-77
2021/10/26 08:23:55;;;;;;;26.75;12.20;;;;;;;9.49;53.68;101938.16;125220;1102;104168;-77
2021/10/26 08:26:31;;;;;;;32.47;12.57;;;;;;;9.58;53.66;101932.57;125153;1102;104493;-77
2021/10/26 08:29:14;;;;;;;25.70;11.80;;;;;;;9.71;53.82;101945.64;125080;1103;104339;-77
2021/10/26 08:31:49;;;;;;;26.43;12.13;;;;;;;9.87;53.48;101942.25;125165;1101;104290;-81
2021/10/26 08:34:32;;;;;;;26.47;9.60;;;;;;;9.99;53.53;101934.24;125102;1102;104156;-80
2021/10/26 08:37:05;;;;;;;23.60;9.78;;;;;;;10.16;52.97;101936.96;125245;1102;104166;-80
2021/10/26 08:39:41;;;;;;;18.60;8.03;;;;;;;10.31;52.71;101935.27;125137;1102;104283;-80
2021/10/26 08:42:18;;;;;;;15.73;6.07;;;;;;;10.43;52.70;101933.40;125155;1102;104171;-80
2021/10/26 08:44:48;;;;;;;14.40;5.47;;;;;;;10.60;52.65;101925.63;125117;1102;104214;-79
2021/10/26 08:47:22;;;;;;;12.73;5.03;;;;;;;10.73;51.95;101928.13;124977;1102;104242;-77
2021/10/26 08:50:15;;;;;;;11.67;4.93;;;;;;;10.83;51.89;101926.96;125134;1102;104156;-79
2021/10/26 08:52:56;;;;;;;11.17;5.00;;;;;;;10.93;51.97;101929.28;125308;1102;104188;-79
2021/10/26 08:55:55;;;;;;;9.53;4.07;;;;;;;11.05;51.33;101921.20;125165;1102;102625;-80
2021/10/26 08:58:42;;;;;;;9.47;4.37;;;;;;;11.20;51.46;101921.14;125002;1102;104153;-79
2021/10/26 09:01:17;;;;;;;11.67;5.10;;;;;;;11.32;51.08;101920.93;125261;1102;102325;-80
2021/10/26 09:04:08;;;;;;;8.83;4.60;;;;;;;11.37;50.37;101919.45;124980;1102;104178;-79
2021/10/26 09:06:50;;;;;;;10.17;4.40;;;;;;;11.43;50.21;101911.91;125027;1102;104169;-78
2021/10/26 09:09:23;;;;;;;11.00;4.60;;;;;;;11.54;50.79;101914.23;125233;1102;104143;-80
2021/10/26 09:18:24;;;;;;;10.13;4.40;;;;;;;11.85;50.10;101901.88;125109;1102;104316;-80
2021/10/26 09:21:33;;;;;;;8.33;4.20;;;;;;;11.93;50.07;101896.17;125295;1102;105521;-81
2021/10/26 09:24:20;;;;;;;8.53;4.27;;;;;;;12.00;49.59;101898.31;125232;1102;104178;-82
2021/10/26 09:27:01;;;;;;;8.15;4.10;;;;;;;12.05;49.38;101887.18;125062;1102;104205;-82
2021/10/26 09:29:50;;;;;;;8.55;3.85;;;;;;;12.11;49.60;101889.23;125048;1102;104156;-80
2021/10/26 09:32:35;;;;;;;9.10;4.23;;;;;;;12.12;48.14;101880.50;125214;1102;104159;-82
2021/10/26 09:35:08;;;;;;;9.40;3.93;;;;;;;12.14;49.09;101884.13;125150;1102;104271;-81
2021/10/26 09:37:42;;;;;;;10.40;4.40;;;;;;;12.22;49.16;101879.27;125273;1102;104152;-80
2021/10/26 09:40:14;;;;;;;9.73;4.60;;;;;;;12.29;48.98;101872.58;125015;1105;104316;-78
2021/10/26 09:42:59;;;;;;;8.57;4.47;;;;;;;12.37;48.64;101874.78;125171;1102;104137;-80
2021/10/26 09:45:33;;;;;;;9.00;4.10;;;;;;;12.45;48.51;101863.70;125218;1102;104233;-81
2021/10/26 09:48:19;;;;;;;9.57;4.40;;;;;;;12.49;48.56;101861.30;125087;1102;102277;-80
2021/10/26 09:50:52;;;;;;;;;;;;;;;12.58;47.49;101848.59;124905;1102;105505;-83
2021/10/26 09:53:36;;;;;;;9.00;3.90;;;;;;;12.69;48.58;101856.13;125033;1103;104156;-81
2021/10/26 09:56:11;;;;;;;8.80;4.07;;;;;;;12.73;48.17;101847.53;125047;1102;104150;-79
2021/10/26 09:58:40;;;;;;;10.53;4.30;;;;;;;12.76;47.57;101845.97;125013;1105;104227;-77
2021/10/26 10:01:26;;;;;;;10.37;4.00;;;;;;;12.82;47.93;101847.97;124885;1105;104155;-79
2021/10/26 10:04:06;;;;;;;7.23;3.20;;;;;;;12.83;47.06;101841.00;125032;1105;101995;-79
2021/10/26 10:07:10;;;;;;;7.60;3.40;;;;;;;12.83;47.24;101826.08;125020;1105;104194;-79
2021/10/26 10:09:43;;;;;;;7.97;3.00;;;;;;;12.85;47.05;101829.69;124657;1105;104383;-79
2021/10/26 10:12:19;;;;;;;8.18;3.20;;;;;;;12.95;46.95;101824.03;124566;1105;104271;-80
2021/10/26 10:14:55;;;;;;;7.03;3.30;;;;;;;13.03;46.82;101816.48;124558;1105;104361;-81
2021/10/26 10:17:28;;;;;;;5.47;2.60;;;;;;;13.08;45.13;101809.69;124550;1106;104239;-80
2021/10/26 10:20:15;;;;;;;6.42;2.70;;;;;;;13.15;45.93;101808.27;124547;1108;104812;-82
2021/10/26 10:22:48;;;;;;;6.33;3.10;;;;;;;13.16;45.88;101810.05;124591;1106;104165;-82
2021/10/26 10:25:20;;;;;;;4.97;2.65;;;;;;;13.22;46.70;101804.16;124746;1105;104293;-81
2021/10/26 10:27:54;;;;;;;6.90;2.97;;;;;;;13.23;45.88;101800.67;124884;1105;104205;-80
2021/10/26 10:30:30;;;;;;;4.43;2.90;;;;;;;13.26;45.60;101792.91;124932;1105;102880;-79
2021/10/26 10:33:03;;;;;;;5.97;2.90;;;;;;;13.27;45.39;101790.34;125051;1103;104312;-80
2021/10/26 10:35:34;;;;;;;7.90;3.10;;;;;;;13.28;46.00;101786.88;125029;1102;104290;-79
2021/10/26 10:38:08;;;;;;;7.57;3.37;;;;;;;13.31;46.25;101788.77;125208;1102;104290;-79
2021/10/26 10:40:41;;;;;;;7.80;3.47;;;;;;;13.32;45.59;101782.64;125048;1102;104184;-78
2021/10/26 10:43:13;;;;;;;6.97;3.60;;;;;;;13.33;45.51;101778.30;124984;1105;104631;-79
2021/10/26 10:45:46;;;;;;;5.87;3.20;;;;;;;13.37;45.37;101774.97;124922;1105;104276;-79
2021/10/26 10:48:34;;;;;;;8.80;3.37;;;;;;;13.38;45.01;101768.87;125027;1105;104319;-79
2021/10/26 10:51:13;;;;;;;11.47;3.90;;;;;;;13.38;45.44;101771.52;125124;1105;104325;-79
2021/10/26 10:53:43;;;;;;;4.73;3.00;;;;;;;13.40;44.74;101761.93;124993;1105;104169;-80
2021/10/26 10:56:19;;;;;;;8.03;3.30;;;;;;;13.41;44.57;101763.74;125013;1105;104184;-80
2021/10/26 10:58:57;;;;;;;6.57;3.50;;;;;;;13.40;45.11;101754.02;124910;1105;104252;-79
2021/10/26 11:01:33;;;;;;;7.17;3.23;;;;;;;13.40;45.04;101748.75;124942;1105;104177;-81
2021/10/26 11:04:41;;;;;;;5.53;3.10;;;;;;;13.36;43.44;101745.08;125008;1103;104338;-80
2021/10/26 11:07:15;;;;;;;5.03;2.83;;;;;;;13.33;44.49;101742.31;124959;1105;104274;-81
2021/10/26 11:09:50;;;;;;;8.30;3.33;;;;;;;13.32;44.34;101735.19;125105;1105;104307;-79
2021/10/26 11:12:29;;;;;;;6.60;2.70;;;;;;;13.28;43.39;101742.07;125017;1105;104291;-81
2021/10/26 11:15:02;;;;;;;7.75;2.60;;;;;;;13.26;43.75;101727.01;124956;1105;104328;-80
2021/10/26 11:17:52;;;;;;;6.33;3.05;;;;;;;13.20;43.21;101732.93;125027;1105;104297;-82
2021/10/26 11:20:48;;;;;;;4.47;2.73;;;;;;;13.20;43.13;101717.12;124941;1106;104277;-79
2021/10/26 11:23:43;;;;;;;3.60;2.70;;;;;;;13.18;43.95;101709.96;124944;1106;104191;-80
2021/10/26 11:26:18;;;;;;;5.50;2.85;;;;;;;13.13;43.61;101697.50;124999;1105;104153;-80
2021/10/26 11:29:03;;;;;;;;;;;;;;;13.14;43.77;101701.03;124929;1105;104329;-81
2021/10/26 11:31:45;;;;;;;5.62;2.62;;;;;;;13.16;43.71;101701.98;124961;1105;104542;-80
2021/10/26 11:34:24;;;;;;;8.60;2.80;;;;;;;13.21;43.74;101697.81;124931;1105;104204;-80
2021/10/26 11:37:07;;;;;;;6.83;3.17;;;;;;;13.22;43.62;101702.27;124975;1104;104227;-82
2021/10/26 11:39:45;;;;;;;6.53;3.20;;;;;;;13.23;44.17;101695.24;124999;1105;104188;-79
2021/10/26 11:42:28;;;;;;;3.90;2.80;;;;;;;13.22;44.23;101686.45;124937;1106;104191;-82
2021/10/26 11:45:09;;;;;;;4.43;2.70;;;;;;;13.22;43.43;101689.08;124932;1104;104322;-79
2021/10/26 11:47:44;;;;;;;5.70;2.77;;;;;;;13.20;43.99;101681.94;125039;1105;104310;-79
2021/10/26 11:50:23;;;;;;;6.53;2.90;;;;;;;13.16;44.19;101675.63;125011;1105;104165;-81